Date,TemperatureHighF,TemperatureAvgF,TemperatureLowF,DewpointHighF,DewpointAvgF,DewpointLowF,HumidityHigh,HumidityAvg,HumidityLow,PressureMaxIn,PressureMinIn,WindSpeedMaxMPH,WindSpeedAvgMPH,GustSpeedMaxMPH,PrecipitationSumIn
2013-3-1,32,29,26,29,25,23,92,85,80,30.05,29.90,11,6,19,0.01
2013-3-2,30,27,25,26,23,21,93,86,78,30.03,29.99,12,7,19,0.00
2013-3-3,29,25,22,22,19,16,90,78,62,30.03,29.98,9,4,15,0.00
2013-3-4,38,28,18,25,21,15,91,76,54,30.12,30.03,5,2,13,0.00
2013-3-5,34,28,24,28,25,21,92,87,75,30.08,29.70,14,4,28,0.00
2013-3-6,40,34,31,34,30,28,91,86,73,30.18,29.70,16,6,27,0.00
2013-3-7,41,35,32,34,30,25,91,84,71,30.36,30.16,9,4,16,0.00
2013-3-8,42,33,25,31,26,21,91,75,60,30.46,30.36,7,2,11,0.00
2013-3-9,51,37,27,38,31,25,94,81,57,30.41,30.03,8,2,12,0.00
2013-3-10,66,56,45,47,41,35,74,57,47,30.02,29.80,17,5,31,0.00
2013-3-11,59,51,39,51,45,34,92,81,52,29.80,29.48,19,9,37,0.48
2013-3-12,39,35,31,34,30,26,88,83,75,29.94,29.74,18,10,29,0.10
2013-3-13,33,31,26,29,24,19,88,76,59,30.19,29.88,14,8,26,0.00
2013-3-14,42,32,22,27,23,18,84,68,52,30.25,30.09,14,5,20,0.00
2013-3-15,47,38,31,39,32,25,95,80,69,30.09,29.82,15,6,22,0.11
2013-3-16,36,33,30,35,32,29,97,96,94,30.00,29.67,12,4,19,0.17
2013-3-17,31,29,26,30,24,21,95,82,75,30.22,30.01,9,4,18,0.01
2013-3-18,42,34,28,41,31,22,97,91,78,30.11,29.52,20,5,32,0.07
2013-3-19,36,30,25,34,22,18,93,72,60,29.95,29.67,23,14,37,0.02
2013-3-20,33,28,20,21,18,11,78,66,52,29.95,29.88,14,7,25,0.00
2013-3-21,33,25,16,25,18,11,87,76,63,29.93,29.86,12,6,23,0.00
2013-3-22,42,33,26,27,22,19,75,65,51,29.99,29.93,11,5,20,0.00
2013-3-23,39,32,24,30,25,21,89,77,63,30.06,29.98,7,2,10,0.00
2013-3-24,34,30,27,28,26,24,91,82,72,30.01,29.50,16,5,27,0.00
2013-3-25,33,32,31,32,30,27,96,94,79,29.85,29.43,15,7,28,0.01
2013-3-26,46,37,33,35,32,30,96,82,62,30.10,29.85,11,5,16,0.11
2013-3-27,46,39,31,32,30,28,91,72,52,30.19,30.09,15,7,22,0.02
2013-3-28,50,40,29,35,30,24,81,66,48,30.25,30.19,11,4,17,0.00
2013-3-29,54,42,29,32,28,25,86,61,38,30.27,30.17,13,3,16,0.00
2013-3-30,57,45,30,34,30,24,83,57,35,30.20,29.93,14,3,19,0.00
2013-3-31,59,49,42,47,37,-100,85,67,49,29.93,29.63,14,6,27,0.01